Airfield :
LOGIN :

Register | Disclaimer

   EN    FR    IT 

 










Legend :    VFR   Marginal VFR   IFR   Intensive IFR   Very Intensive IFR
Visi :
Ceiling :
>= 8 km
>= 3000ft
5 to 8 km
1000 to 3000 ft
1500m to 5 km
500 to 1000 ft
800 to 1500m
200 to 500 ft
< 800m
< 200 ft
Symbols :   Thunderstorms  Fog  Heavy snow  Heavy precipitations  Wind > 20 kt
SIGMETs :     Misc.  Thunderstorms  Icing  Turbulence  Mountain Waves  Volcanic Ashes






- Airport Elevation : 302 ft
- IATA code : CGN


EDDK - Cologne Bonn

CURRENT METAR :
  • 070650Z AUTO 32014KT 9999 SHRA FEW008 OVC035 FEW///TCU 16/14 Q1020 TEMPO 4000 RADZ BKN012

EXPIRED METARs :
  • 070620Z AUTO 28012KT 8000 -RADZ BKN019 OVC042 17/14 Q1019 RERA TEMPO 4000 RADZ BKN012
  • 070550Z AUTO 27010KT 9999 FEW020 BKN049 18/14 Q1019 TEMPO 4000 RADZ BKN012
  • 070520Z AUTO 27011KT 9999 SCT041 18/13 Q1019 TEMPO 4000 RADZ BKN012
  • 070450Z AUTO 27011KT 9999 FEW022 BKN044 17/13 Q1019 NOSIG
  • 070350Z AUTO 22005KT 9999 FEW011 BKN042 16/13 Q1020 NOSIG

TAF TAF EDDK
Valid from the 07 at 06:00 until the 08 at 12:00 UTC


070500Z 0706/0812 27008KT 9999 BKN035
PROB40
TEMPO 0706/0710 4000 RADZ BKN012
BECMG 0707/0710 31013KT
BECMG 0718/0721 32007KT
PROB30
TEMPO 0803/0807 BKN012



MET'MAP, your aeronautical weather chart ! - Copyright ORBIFLY December 2007 - Disclaimer

ORBIFLY MET'MAP TEAM :

Programming & Development : Alexandra Zaïnal
Original concept : Baudouin d'Aumeries
Technical & hardware support : Manuel Goepfert
Assistance : Marc-Olivier Méhu




SOURCES & CREDITS :

   NOAA